sensor_id;sensor_type;location;lat;lon;timestamp;P1;durP1;ratioP1;P2;durP2;ratioP2
27804;SDS011;15183;51.350;11.102;2023-05-27T00:00:07;7.50;;;4.07;;
27804;SDS011;15183;51.350;11.102;2023-05-27T00:02:35;10.55;;;4.97;;
27804;SDS011;15183;51.350;11.102;2023-05-27T00:05:01;9.98;;;4.20;;
27804;SDS011;15183;51.350;11.102;2023-05-27T00:07:29;7.70;;;4.68;;
27804;SDS011;15183;51.350;11.102;2023-05-27T00:09:58;9.63;;;4.07;;
27804;SDS011;15183;51.350;11.102;2023-05-27T00:12:24;11.55;;;4.72;;
27804;SDS011;15183;51.350;11.102;2023-05-27T00:14:51;9.40;;;4.15;;
27804;SDS011;15183;51.350;11.102;2023-05-27T00:17:17;11.82;;;4.70;;
27804;SDS011;15183;51.350;11.102;2023-05-27T00:19:46;7.72;;;4.38;;
27804;SDS011;15183;51.350;11.102;2023-05-27T00:22:15;7.50;;;4.93;;
27804;SDS011;15183;51.350;11.102;2023-05-27T00:24:42;11.55;;;5.78;;
27804;SDS011;15183;51.350;11.102;2023-05-27T00:27:09;12.23;;;4.50;;
27804;SDS011;15183;51.350;11.102;2023-05-27T00:29:38;8.45;;;3.88;;
27804;SDS011;15183;51.350;11.102;2023-05-27T00:32:04;9.77;;;4.55;;
27804;SDS011;15183;51.350;11.102;2023-05-27T00:34:31;12.02;;;4.18;;
27804;SDS011;15183;51.350;11.102;2023-05-27T00:36:59;7.88;;;3.78;;
27804;SDS011;15183;51.350;11.102;2023-05-27T00:39:26;8.55;;;3.97;;
27804;SDS011;15183;51.350;11.102;2023-05-27T00:41:52;8.57;;;4.10;;
27804;SDS011;15183;51.350;11.102;2023-05-27T00:44:20;6.82;;;4.03;;
27804;SDS011;15183;51.350;11.102;2023-05-27T00:46:47;10.10;;;4.97;;
27804;SDS011;15183;51.350;11.102;2023-05-27T00:49:14;10.35;;;4.32;;
27804;SDS011;15183;51.350;11.102;2023-05-27T00:51:41;8.05;;;4.05;;
27804;SDS011;15183;51.350;11.102;2023-05-27T00:54:08;9.40;;;4.28;;
27804;SDS011;15183;51.350;11.102;2023-05-27T00:56:36;7.90;;;3.85;;
27804;SDS011;15183;51.350;11.102;2023-05-27T00:59:03;9.55;;;4.97;;
27804;SDS011;15183;51.350;11.102;2023-05-27T01:01:30;9.45;;;4.65;;
27804;SDS011;15183;51.350;11.102;2023-05-27T01:03:58;7.13;;;3.78;;
27804;SDS011;15183;51.350;11.102;2023-05-27T01:06:39;9.65;;;3.65;;
27804;SDS011;15183;51.350;11.102;2023-05-27T01:12:11;13.73;;;5.20;;
27804;SDS011;15183;51.350;11.102;2023-05-27T01:15:11;10.10;;;4.60;;
27804;SDS011;15183;51.350;11.102;2023-05-27T01:17:38;9.23;;;4.43;;
27804;SDS011;15183;51.350;11.102;2023-05-27T01:20:12;8.45;;;4.80;;
27804;SDS011;15183;51.350;11.102;2023-05-27T01:22:41;10.93;;;4.13;;
27804;SDS011;15183;51.350;11.102;2023-05-27T01:25:09;9.10;;;4.75;;
27804;SDS011;15183;51.350;11.102;2023-05-27T01:27:36;11.68;;;4.28;;
27804;SDS011;15183;51.350;11.102;2023-05-27T01:30:06;8.98;;;4.53;;
27804;SDS011;15183;51.350;11.102;2023-05-27T01:32:36;11.43;;;4.28;;
27804;SDS011;15183;51.350;11.102;2023-05-27T01:38:06;8.70;;;3.47;;
27804;SDS011;15183;51.350;11.102;2023-05-27T01:40:37;6.53;;;3.47;;
27804;SDS011;15183;51.350;11.102;2023-05-27T01:43:04;6.82;;;3.20;;
27804;SDS011;15183;51.350;11.102;2023-05-27T01:45:32;9.68;;;3.72;;
27804;SDS011;15183;51.350;11.102;2023-05-27T01:48:00;7.28;;;3.92;;
27804;SDS011;15183;51.350;11.102;2023-05-27T01:50:27;10.00;;;4.00;;
27804;SDS011;15183;51.350;11.102;2023-05-27T01:52:56;8.35;;;3.78;;
27804;SDS011;15183;51.350;11.102;2023-05-27T01:55:23;9.45;;;4.80;;
27804;SDS011;15183;51.350;11.102;2023-05-27T01:57:49;12.30;;;4.80;;
27804;SDS011;15183;51.350;11.102;2023-05-27T02:00:16;7.22;;;4.32;;
27804;SDS011;15183;51.350;11.102;2023-05-27T02:02:43;10.85;;;4.88;;
27804;SDS011;15183;51.350;11.102;2023-05-27T02:05:09;9.27;;;4.32;;
27804;SDS011;15183;51.350;11.102;2023-05-27T02:07:36;9.15;;;4.10;;
27804;SDS011;15183;51.350;11.102;2023-05-27T02:10:02;12.50;;;3.67;;
27804;SDS011;15183;51.350;11.102;2023-05-27T02:12:29;8.32;;;3.58;;
27804;SDS011;15183;51.350;11.102;2023-05-27T02:14:55;8.27;;;3.95;;
27804;SDS011;15183;51.350;11.102;2023-05-27T02:17:21;12.43;;;3.47;;
27804;SDS011;15183;51.350;11.102;2023-05-27T02:19:50;13.00;;;3.83;;
27804;SDS011;15183;51.350;11.102;2023-05-27T02:22:17;11.05;;;4.32;;
27804;SDS011;15183;51.350;11.102;2023-05-27T02:24:44;9.63;;;3.85;;
27804;SDS011;15183;51.350;11.102;2023-05-27T02:27:10;9.10;;;3.85;;
27804;SDS011;15183;51.350;11.102;2023-05-27T02:29:37;7.88;;;3.72;;
27804;SDS011;15183;51.350;11.102;2023-05-27T02:32:03;9.60;;;4.40;;
27804;SDS011;15183;51.350;11.102;2023-05-27T02:34:30;9.23;;;4.03;;
27804;SDS011;15183;51.350;11.102;2023-05-27T02:36:56;11.57;;;4.10;;
27804;SDS011;15183;51.350;11.102;2023-05-27T02:39:23;6.38;;;3.45;;
27804;SDS011;15183;51.350;11.102;2023-05-27T02:41:49;8.57;;;3.72;;
27804;SDS011;15183;51.350;11.102;2023-05-27T02:44:15;7.90;;;4.30;;
27804;SDS011;15183;51.350;11.102;2023-05-27T02:46:42;10.45;;;4.18;;
27804;SDS011;15183;51.350;11.102;2023-05-27T02:49:08;10.05;;;4.15;;
27804;SDS011;15183;51.350;11.102;2023-05-27T02:51:35;9.35;;;3.60;;
27804;SDS011;15183;51.350;11.102;2023-05-27T02:54:01;12.35;;;3.90;;
27804;SDS011;15183;51.350;11.102;2023-05-27T02:56:28;7.60;;;3.67;;
27804;SDS011;15183;51.350;11.102;2023-05-27T02:58:54;9.48;;;4.15;;
27804;SDS011;15183;51.350;11.102;2023-05-27T03:01:21;7.25;;;3.58;;
27804;SDS011;15183;51.350;11.102;2023-05-27T03:03:47;7.72;;;3.63;;
27804;SDS011;15183;51.350;11.102;2023-05-27T03:06:13;7.35;;;3.72;;
27804;SDS011;15183;51.350;11.102;2023-05-27T03:08:40;5.40;;;3.50;;
27804;SDS011;15183;51.350;11.102;2023-05-27T03:11:06;9.80;;;4.15;;
27804;SDS011;15183;51.350;11.102;2023-05-27T03:13:33;7.90;;;4.00;;
27804;SDS011;15183;51.350;11.102;2023-05-27T03:15:59;6.63;;;3.92;;
27804;SDS011;15183;51.350;11.102;2023-05-27T03:18:25;7.38;;;3.58;;
27804;SDS011;15183;51.350;11.102;2023-05-27T03:20:52;6.80;;;3.70;;
27804;SDS011;15183;51.350;11.102;2023-05-27T03:23:18;10.02;;;4.20;;
27804;SDS011;15183;51.350;11.102;2023-05-27T03:25:45;8.07;;;4.28;;
27804;SDS011;15183;51.350;11.102;2023-05-27T03:28:11;8.23;;;4.38;;
27804;SDS011;15183;51.350;11.102;2023-05-27T03:30:38;8.48;;;4.00;;
27804;SDS011;15183;51.350;11.102;2023-05-27T03:33:04;8.40;;;3.65;;
27804;SDS011;15183;51.350;11.102;2023-05-27T03:35:30;7.50;;;4.05;;
27804;SDS011;15183;51.350;11.102;2023-05-27T03:37:57;10.68;;;4.30;;
27804;SDS011;15183;51.350;11.102;2023-05-27T03:40:23;9.30;;;3.63;;
27804;SDS011;15183;51.350;11.102;2023-05-27T03:42:50;10.70;;;3.50;;
27804;SDS011;15183;51.350;11.102;2023-05-27T03:45:18;8.15;;;4.30;;
27804;SDS011;15183;51.350;11.102;2023-05-27T03:47:45;9.88;;;4.30;;
27804;SDS011;15183;51.350;11.102;2023-05-27T03:50:11;10.77;;;4.22;;
27804;SDS011;15183;51.350;11.102;2023-05-27T03:52:37;10.40;;;3.80;;
27804;SDS011;15183;51.350;11.102;2023-05-27T03:55:04;6.80;;;3.35;;
27804;SDS011;15183;51.350;11.102;2023-05-27T03:57:31;7.60;;;3.67;;
27804;SDS011;15183;51.350;11.102;2023-05-27T03:59:57;14.10;;;3.92;;
27804;SDS011;15183;51.350;11.102;2023-05-27T04:02:23;7.65;;;3.55;;
27804;SDS011;15183;51.350;11.102;2023-05-27T04:04:50;6.00;;;3.28;;
27804;SDS011;15183;51.350;11.102;2023-05-27T04:07:16;11.55;;;4.43;;
27804;SDS011;15183;51.350;11.102;2023-05-27T04:09:43;6.80;;;3.25;;
27804;SDS011;15183;51.350;11.102;2023-05-27T04:12:10;6.93;;;3.70;;
27804;SDS011;15183;51.350;11.102;2023-05-27T04:14:36;7.57;;;3.80;;
27804;SDS011;15183;51.350;11.102;2023-05-27T04:17:03;6.32;;;3.28;;
27804;SDS011;15183;51.350;11.102;2023-05-27T04:19:29;8.50;;;3.67;;
27804;SDS011;15183;51.350;11.102;2023-05-27T04:21:58;6.75;;;3.25;;
27804;SDS011;15183;51.350;11.102;2023-05-27T04:24:24;7.82;;;3.33;;
27804;SDS011;15183;51.350;11.102;2023-05-27T04:26:51;6.38;;;3.58;;
27804;SDS011;15183;51.350;11.102;2023-05-27T04:29:17;7.43;;;3.13;;
27804;SDS011;15183;51.350;11.102;2023-05-27T04:31:44;9.18;;;3.22;;
27804;SDS011;15183;51.350;11.102;2023-05-27T04:34:10;7.03;;;3.55;;
27804;SDS011;15183;51.350;11.102;2023-05-27T04:36:37;5.10;;;2.97;;
27804;SDS011;15183;51.350;11.102;2023-05-27T04:39:03;9.50;;;3.63;;
27804;SDS011;15183;51.350;11.102;2023-05-27T04:41:30;5.57;;;3.28;;
27804;SDS011;15183;51.350;11.102;2023-05-27T04:43:58;9.25;;;4.35;;
27804;SDS011;15183;51.350;11.102;2023-05-27T04:46:26;7.25;;;3.40;;
27804;SDS011;15183;51.350;11.102;2023-05-27T04:48:53;10.07;;;3.75;;
27804;SDS011;15183;51.350;11.102;2023-05-27T04:51:19;9.27;;;3.70;;
27804;SDS011;15183;51.350;11.102;2023-05-27T04:53:46;8.90;;;4.03;;
27804;SDS011;15183;51.350;11.102;2023-05-27T04:56:15;9.20;;;4.00;;
27804;SDS011;15183;51.350;11.102;2023-05-27T04:58:43;7.53;;;3.80;;
27804;SDS011;15183;51.350;11.102;2023-05-27T05:01:13;9.43;;;4.95;;
27804;SDS011;15183;51.350;11.102;2023-05-27T05:03:43;9.65;;;3.85;;
27804;SDS011;15183;51.350;11.102;2023-05-27T05:06:19;9.30;;;3.50;;
27804;SDS011;15183;51.350;11.102;2023-05-27T05:08:48;9.07;;;4.68;;
27804;SDS011;15183;51.350;11.102;2023-05-27T05:11:14;9.68;;;5.50;;
27804;SDS011;15183;51.350;11.102;2023-05-27T05:13:41;8.77;;;4.00;;
27804;SDS011;15183;51.350;11.102;2023-05-27T05:16:08;8.15;;;3.50;;
27804;SDS011;15183;51.350;11.102;2023-05-27T05:18:34;12.10;;;5.90;;
27804;SDS011;15183;51.350;11.102;2023-05-27T05:21:01;27.95;;;13.40;;
27804;SDS011;15183;51.350;11.102;2023-05-27T05:23:27;12.18;;;6.57;;
27804;SDS011;15183;51.350;11.102;2023-05-27T05:25:54;12.07;;;6.32;;
27804;SDS011;15183;51.350;11.102;2023-05-27T05:28:24;13.45;;;5.55;;
27804;SDS011;15183;51.350;11.102;2023-05-27T05:30:50;21.30;;;12.85;;
27804;SDS011;15183;51.350;11.102;2023-05-27T05:33:17;13.93;;;7.50;;
27804;SDS011;15183;51.350;11.102;2023-05-27T05:35:43;13.40;;;6.95;;
27804;SDS011;15183;51.350;11.102;2023-05-27T05:38:10;10.10;;;5.05;;
27804;SDS011;15183;51.350;11.102;2023-05-27T05:40:36;11.07;;;6.00;;
27804;SDS011;15183;51.350;11.102;2023-05-27T05:43:03;10.52;;;6.47;;
27804;SDS011;15183;51.350;11.102;2023-05-27T05:45:29;10.23;;;5.72;;
27804;SDS011;15183;51.350;11.102;2023-05-27T05:47:56;10.65;;;6.47;;
27804;SDS011;15183;51.350;11.102;2023-05-27T05:50:23;10.50;;;4.97;;
27804;SDS011;15183;51.350;11.102;2023-05-27T05:52:49;10.48;;;4.88;;
27804;SDS011;15183;51.350;11.102;2023-05-27T05:55:16;10.07;;;5.10;;
27804;SDS011;15183;51.350;11.102;2023-05-27T05:57:42;13.88;;;6.53;;
27804;SDS011;15183;51.350;11.102;2023-05-27T06:00:08;12.00;;;5.30;;
27804;SDS011;15183;51.350;11.102;2023-05-27T06:02:37;11.10;;;5.13;;
27804;SDS011;15183;51.350;11.102;2023-05-27T06:05:03;8.02;;;4.20;;
27804;SDS011;15183;51.350;11.102;2023-05-27T06:07:30;10.73;;;4.53;;
27804;SDS011;15183;51.350;11.102;2023-05-27T06:09:56;9.63;;;4.47;;
27804;SDS011;15183;51.350;11.102;2023-05-27T06:12:22;10.10;;;3.53;;
27804;SDS011;15183;51.350;11.102;2023-05-27T06:14:49;8.35;;;4.97;;
27804;SDS011;15183;51.350;11.102;2023-05-27T06:17:15;13.85;;;8.05;;
27804;SDS011;15183;51.350;11.102;2023-05-27T06:19:42;15.25;;;9.10;;
27804;SDS011;15183;51.350;11.102;2023-05-27T06:22:08;13.30;;;7.93;;
27804;SDS011;15183;51.350;11.102;2023-05-27T06:24:35;14.93;;;6.82;;
27804;SDS011;15183;51.350;11.102;2023-05-27T06:27:01;14.48;;;7.82;;
27804;SDS011;15183;51.350;11.102;2023-05-27T06:29:28;14.57;;;8.35;;
27804;SDS011;15183;51.350;11.102;2023-05-27T06:31:54;11.55;;;6.78;;
27804;SDS011;15183;51.350;11.102;2023-05-27T06:34:21;15.02;;;8.13;;
27804;SDS011;15183;51.350;11.102;2023-05-27T06:36:47;12.60;;;7.55;;
27804;SDS011;15183;51.350;11.102;2023-05-27T06:39:14;11.98;;;5.28;;
27804;SDS011;15183;51.350;11.102;2023-05-27T06:41:41;13.55;;;7.95;;
27804;SDS011;15183;51.350;11.102;2023-05-27T06:44:08;11.07;;;4.60;;
27804;SDS011;15183;51.350;11.102;2023-05-27T06:46:34;20.23;;;8.65;;
27804;SDS011;15183;51.350;11.102;2023-05-27T06:49:00;15.63;;;8.20;;
27804;SDS011;15183;51.350;11.102;2023-05-27T06:51:28;13.05;;;6.85;;
27804;SDS011;15183;51.350;11.102;2023-05-27T06:53:55;11.77;;;6.78;;
27804;SDS011;15183;51.350;11.102;2023-05-27T06:56:21;12.52;;;6.85;;
27804;SDS011;15183;51.350;11.102;2023-05-27T06:58:47;10.07;;;4.72;;
27804;SDS011;15183;51.350;11.102;2023-05-27T07:01:14;12.43;;;4.55;;
27804;SDS011;15183;51.350;11.102;2023-05-27T07:03:41;8.80;;;4.90;;
27804;SDS011;15183;51.350;11.102;2023-05-27T07:06:07;16.98;;;7.15;;
27804;SDS011;15183;51.350;11.102;2023-05-27T07:08:34;18.83;;;10.23;;
27804;SDS011;15183;51.350;11.102;2023-05-27T07:11:00;17.08;;;7.05;;
27804;SDS011;15183;51.350;11.102;2023-05-27T07:13:27;13.15;;;7.30;;
27804;SDS011;15183;51.350;11.102;2023-05-27T07:15:53;16.38;;;10.38;;
27804;SDS011;15183;51.350;11.102;2023-05-27T07:18:20;12.05;;;4.80;;
27804;SDS011;15183;51.350;11.102;2023-05-27T07:20:46;18.63;;;9.55;;
27804;SDS011;15183;51.350;11.102;2023-05-27T07:23:12;15.40;;;8.82;;
27804;SDS011;15183;51.350;11.102;2023-05-27T07:25:39;13.43;;;6.88;;
27804;SDS011;15183;51.350;11.102;2023-05-27T07:28:05;13.52;;;6.40;;
27804;SDS011;15183;51.350;11.102;2023-05-27T07:30:32;12.68;;;4.95;;
27804;SDS011;15183;51.350;11.102;2023-05-27T07:32:58;13.15;;;5.03;;
27804;SDS011;15183;51.350;11.102;2023-05-27T07:35:24;17.45;;;9.88;;
27804;SDS011;15183;51.350;11.102;2023-05-27T07:37:51;17.38;;;7.38;;
27804;SDS011;15183;51.350;11.102;2023-05-27T07:40:17;12.20;;;5.75;;
27804;SDS011;15183;51.350;11.102;2023-05-27T07:42:44;19.00;;;11.30;;
27804;SDS011;15183;51.350;11.102;2023-05-27T07:45:10;17.00;;;7.32;;
27804;SDS011;15183;51.350;11.102;2023-05-27T07:47:37;17.48;;;7.10;;
27804;SDS011;15183;51.350;11.102;2023-05-27T07:50:03;14.18;;;4.93;;
27804;SDS011;15183;51.350;11.102;2023-05-27T07:52:30;17.38;;;5.55;;
27804;SDS011;15183;51.350;11.102;2023-05-27T07:54:56;13.98;;;6.65;;
27804;SDS011;15183;51.350;11.102;2023-05-27T07:57:23;16.15;;;4.70;;
27804;SDS011;15183;51.350;11.102;2023-05-27T07:59:50;12.27;;;3.92;;
27804;SDS011;15183;51.350;11.102;2023-05-27T08:02:16;12.82;;;5.75;;
27804;SDS011;15183;51.350;11.102;2023-05-27T08:04:43;12.23;;;4.55;;
27804;SDS011;15183;51.350;11.102;2023-05-27T08:07:10;13.50;;;5.78;;
27804;SDS011;15183;51.350;11.102;2023-05-27T08:09:36;16.25;;;7.57;;
27804;SDS011;15183;51.350;11.102;2023-05-27T08:12:03;20.00;;;8.75;;
27804;SDS011;15183;51.350;11.102;2023-05-27T08:14:31;15.65;;;6.45;;
27804;SDS011;15183;51.350;11.102;2023-05-27T08:16:58;11.70;;;4.65;;
27804;SDS011;15183;51.350;11.102;2023-05-27T08:19:24;20.10;;;8.20;;
27804;SDS011;15183;51.350;11.102;2023-05-27T08:21:51;17.67;;;6.70;;
27804;SDS011;15183;51.350;11.102;2023-05-27T08:24:17;15.68;;;4.32;;
27804;SDS011;15183;51.350;11.102;2023-05-27T08:26:47;12.95;;;3.28;;
27804;SDS011;15183;51.350;11.102;2023-05-27T08:29:13;17.83;;;8.55;;
27804;SDS011;15183;51.350;11.102;2023-05-27T08:31:40;13.20;;;4.30;;
27804;SDS011;15183;51.350;11.102;2023-05-27T08:34:06;9.98;;;4.47;;
27804;SDS011;15183;51.350;11.102;2023-05-27T08:36:33;8.18;;;3.42;;
27804;SDS011;15183;51.350;11.102;2023-05-27T08:38:59;12.13;;;3.92;;
27804;SDS011;15183;51.350;11.102;2023-05-27T08:41:26;16.30;;;4.25;;
27804;SDS011;15183;51.350;11.102;2023-05-27T08:43:53;9.63;;;3.53;;
27804;SDS011;15183;51.350;11.102;2023-05-27T08:46:20;15.48;;;6.03;;
27804;SDS011;15183;51.350;11.102;2023-05-27T08:48:47;15.00;;;5.25;;
27804;SDS011;15183;51.350;11.102;2023-05-27T08:51:16;11.73;;;3.75;;
27804;SDS011;15183;51.350;11.102;2023-05-27T08:53:44;13.40;;;3.85;;
27804;SDS011;15183;51.350;11.102;2023-05-27T08:56:11;17.58;;;7.55;;
27804;SDS011;15183;51.350;11.102;2023-05-27T08:58:43;12.63;;;5.07;;
27804;SDS011;15183;51.350;11.102;2023-05-27T09:01:10;12.25;;;4.35;;
27804;SDS011;15183;51.350;11.102;2023-05-27T09:03:38;15.20;;;5.10;;
27804;SDS011;15183;51.350;11.102;2023-05-27T09:06:04;13.98;;;4.45;;
27804;SDS011;15183;51.350;11.102;2023-05-27T09:08:31;15.02;;;4.30;;
27804;SDS011;15183;51.350;11.102;2023-05-27T09:10:58;13.32;;;6.07;;
27804;SDS011;15183;51.350;11.102;2023-05-27T09:13:25;12.52;;;4.45;;
27804;SDS011;15183;51.350;11.102;2023-05-27T09:15:59;14.80;;;6.30;;
27804;SDS011;15183;51.350;11.102;2023-05-27T09:18:32;15.75;;;7.80;;
27804;SDS011;15183;51.350;11.102;2023-05-27T09:21:01;14.77;;;5.50;;
27804;SDS011;15183;51.350;11.102;2023-05-27T09:23:28;11.95;;;4.22;;
27804;SDS011;15183;51.350;11.102;2023-05-27T09:25:55;17.80;;;8.32;;
27804;SDS011;15183;51.350;11.102;2023-05-27T09:28:22;13.52;;;4.60;;
27804;SDS011;15183;51.350;11.102;2023-05-27T09:30:51;16.20;;;4.60;;
27804;SDS011;15183;51.350;11.102;2023-05-27T09:33:31;12.00;;;4.40;;
27804;SDS011;15183;51.350;11.102;2023-05-27T09:36:00;14.10;;;5.15;;
27804;SDS011;15183;51.350;11.102;2023-05-27T09:38:32;11.38;;;3.95;;
27804;SDS011;15183;51.350;11.102;2023-05-27T09:41:02;14.77;;;4.57;;
27804;SDS011;15183;51.350;11.102;2023-05-27T09:43:29;9.68;;;3.35;;
27804;SDS011;15183;51.350;11.102;2023-05-27T09:46:07;10.93;;;3.63;;
27804;SDS011;15183;51.350;11.102;2023-05-27T09:48:39;12.07;;;6.20;;
27804;SDS011;15183;51.350;11.102;2023-05-27T09:51:06;9.27;;;3.63;;
27804;SDS011;15183;51.350;11.102;2023-05-27T09:53:33;10.60;;;4.07;;
27804;SDS011;15183;51.350;11.102;2023-05-27T09:56:01;10.80;;;4.30;;
27804;SDS011;15183;51.350;11.102;2023-05-27T09:58:27;11.30;;;4.80;;
27804;SDS011;15183;51.350;11.102;2023-05-27T10:00:55;9.25;;;3.22;;
27804;SDS011;15183;51.350;11.102;2023-05-27T10:03:22;10.07;;;3.78;;
27804;SDS011;15183;51.350;11.102;2023-05-27T10:05:53;12.75;;;5.53;;
27804;SDS011;15183;51.350;11.102;2023-05-27T10:08:21;11.93;;;3.60;;
27804;SDS011;15183;51.350;11.102;2023-05-27T10:10:48;12.07;;;4.38;;
27804;SDS011;15183;51.350;11.102;2023-05-27T10:13:14;9.38;;;4.03;;
27804;SDS011;15183;51.350;11.102;2023-05-27T10:15:51;9.23;;;3.50;;
27804;SDS011;15183;51.350;11.102;2023-05-27T10:18:22;10.32;;;4.55;;
27804;SDS011;15183;51.350;11.102;2023-05-27T10:23:24;8.23;;;3.17;;
27804;SDS011;15183;51.350;11.102;2023-05-27T10:25:55;10.88;;;3.47;;
27804;SDS011;15183;51.350;11.102;2023-05-27T10:28:35;11.73;;;3.25;;
27804;SDS011;15183;51.350;11.102;2023-05-27T10:31:07;10.20;;;2.97;;
27804;SDS011;15183;51.350;11.102;2023-05-27T10:33:39;12.45;;;2.88;;
27804;SDS011;15183;51.350;11.102;2023-05-27T10:36:13;12.77;;;3.30;;
27804;SDS011;15183;51.350;11.102;2023-05-27T10:38:42;8.73;;;3.72;;
27804;SDS011;15183;51.350;11.102;2023-05-27T10:41:19;9.93;;;4.70;;
27804;SDS011;15183;51.350;11.102;2023-05-27T10:43:53;9.45;;;3.38;;
27804;SDS011;15183;51.350;11.102;2023-05-27T10:46:24;8.32;;;3.10;;
27804;SDS011;15183;51.350;11.102;2023-05-27T10:48:51;11.10;;;2.92;;
27804;SDS011;15183;51.350;11.102;2023-05-27T10:51:18;13.25;;;3.15;;
27804;SDS011;15183;51.350;11.102;2023-05-27T10:53:45;9.68;;;3.45;;
27804;SDS011;15183;51.350;11.102;2023-05-27T10:56:12;9.93;;;3.00;;
27804;SDS011;15183;51.350;11.102;2023-05-27T10:58:38;9.02;;;3.10;;
27804;SDS011;15183;51.350;11.102;2023-05-27T11:01:09;6.90;;;2.85;;
27804;SDS011;15183;51.350;11.102;2023-05-27T11:03:45;9.05;;;3.25;;
27804;SDS011;15183;51.350;11.102;2023-05-27T11:06:13;8.55;;;3.08;;
27804;SDS011;15183;51.350;11.102;2023-05-27T11:08:42;11.43;;;3.13;;
27804;SDS011;15183;51.350;11.102;2023-05-27T11:11:10;9.57;;;2.85;;
27804;SDS011;15183;51.350;11.102;2023-05-27T11:13:44;8.70;;;3.10;;
27804;SDS011;15183;51.350;11.102;2023-05-27T11:16:12;9.35;;;3.10;;
27804;SDS011;15183;51.350;11.102;2023-05-27T11:18:40;9.93;;;3.35;;
27804;SDS011;15183;51.350;11.102;2023-05-27T11:21:09;11.95;;;3.95;;
27804;SDS011;15183;51.350;11.102;2023-05-27T11:23:39;8.82;;;2.90;;
27804;SDS011;15183;51.350;11.102;2023-05-27T11:28:50;10.90;;;3.40;;
27804;SDS011;15183;51.350;11.102;2023-05-27T11:31:29;6.05;;;2.90;;
27804;SDS011;15183;51.350;11.102;2023-05-27T11:33:56;10.82;;;3.55;;
27804;SDS011;15183;51.350;11.102;2023-05-27T11:36:27;9.88;;;3.38;;
27804;SDS011;15183;51.350;11.102;2023-05-27T11:38:56;11.07;;;3.17;;
27804;SDS011;15183;51.350;11.102;2023-05-27T11:41:25;7.75;;;2.60;;
27804;SDS011;15183;51.350;11.102;2023-05-27T11:44:00;8.00;;;3.03;;
27804;SDS011;15183;51.350;11.102;2023-05-27T11:46:38;8.80;;;3.03;;
27804;SDS011;15183;51.350;11.102;2023-05-27T11:49:08;9.45;;;2.88;;
27804;SDS011;15183;51.350;11.102;2023-05-27T11:51:36;15.13;;;3.95;;
27804;SDS011;15183;51.350;11.102;2023-05-27T11:54:05;6.47;;;2.65;;
27804;SDS011;15183;51.350;11.102;2023-05-27T11:56:31;8.25;;;3.05;;
27804;SDS011;15183;51.350;11.102;2023-05-27T11:58:58;8.77;;;3.53;;
27804;SDS011;15183;51.350;11.102;2023-05-27T12:01:25;11.25;;;3.38;;
27804;SDS011;15183;51.350;11.102;2023-05-27T12:03:52;9.50;;;3.22;;
27804;SDS011;15183;51.350;11.102;2023-05-27T12:06:18;10.27;;;3.90;;
27804;SDS011;15183;51.350;11.102;2023-05-27T12:08:44;9.98;;;3.45;;
27804;SDS011;15183;51.350;11.102;2023-05-27T12:11:11;11.15;;;3.28;;
27804;SDS011;15183;51.350;11.102;2023-05-27T12:13:37;9.73;;;3.80;;
27804;SDS011;15183;51.350;11.102;2023-05-27T12:16:04;9.00;;;3.05;;
27804;SDS011;15183;51.350;11.102;2023-05-27T12:18:30;8.27;;;3.25;;
27804;SDS011;15183;51.350;11.102;2023-05-27T12:20:57;6.93;;;2.67;;
27804;SDS011;15183;51.350;11.102;2023-05-27T12:23:23;10.43;;;3.30;;
27804;SDS011;15183;51.350;11.102;2023-05-27T12:25:50;12.75;;;3.33;;
27804;SDS011;15183;51.350;11.102;2023-05-27T12:28:17;9.43;;;3.53;;
27804;SDS011;15183;51.350;11.102;2023-05-27T12:30:43;11.55;;;3.17;;
27804;SDS011;15183;51.350;11.102;2023-05-27T12:33:11;9.20;;;3.42;;
27804;SDS011;15183;51.350;11.102;2023-05-27T12:35:38;7.55;;;3.08;;
27804;SDS011;15183;51.350;11.102;2023-05-27T12:38:05;12.82;;;3.83;;
27804;SDS011;15183;51.350;11.102;2023-05-27T12:40:31;12.75;;;3.78;;
27804;SDS011;15183;51.350;11.102;2023-05-27T12:42:58;8.88;;;2.65;;
27804;SDS011;15183;51.350;11.102;2023-05-27T12:45:25;9.25;;;2.90;;
27804;SDS011;15183;51.350;11.102;2023-05-27T12:47:52;8.52;;;3.20;;
27804;SDS011;15183;51.350;11.102;2023-05-27T12:50:19;7.93;;;3.05;;
27804;SDS011;15183;51.350;11.102;2023-05-27T12:52:47;7.65;;;2.97;;
27804;SDS011;15183;51.350;11.102;2023-05-27T12:55:15;10.77;;;3.97;;
27804;SDS011;15183;51.350;11.102;2023-05-27T12:57:47;8.77;;;3.25;;
27804;SDS011;15183;51.350;11.102;2023-05-27T13:00:16;8.20;;;2.85;;
27804;SDS011;15183;51.350;11.102;2023-05-27T13:02:45;6.90;;;2.50;;
27804;SDS011;15183;51.350;11.102;2023-05-27T13:05:15;9.38;;;2.97;;
27804;SDS011;15183;51.350;11.102;2023-05-27T13:07:53;10.10;;;3.33;;
27804;SDS011;15183;51.350;11.102;2023-05-27T13:10:27;9.15;;;3.30;;
27804;SDS011;15183;51.350;11.102;2023-05-27T13:12:55;9.50;;;3.17;;
27804;SDS011;15183;51.350;11.102;2023-05-27T13:15:24;8.05;;;2.80;;
27804;SDS011;15183;51.350;11.102;2023-05-27T13:17:51;7.28;;;2.67;;
27804;SDS011;15183;51.350;11.102;2023-05-27T13:20:19;7.78;;;3.50;;
27804;SDS011;15183;51.350;11.102;2023-05-27T13:22:48;6.93;;;2.70;;
27804;SDS011;15183;51.350;11.102;2023-05-27T13:25:14;6.75;;;2.95;;
27804;SDS011;15183;51.350;11.102;2023-05-27T13:27:42;9.27;;;3.30;;
27804;SDS011;15183;51.350;11.102;2023-05-27T13:30:12;8.07;;;2.95;;
27804;SDS011;15183;51.350;11.102;2023-05-27T13:32:41;7.93;;;3.30;;
27804;SDS011;15183;51.350;11.102;2023-05-27T13:35:09;8.98;;;2.83;;
27804;SDS011;15183;51.350;11.102;2023-05-27T13:37:39;7.25;;;3.20;;
27804;SDS011;15183;51.350;11.102;2023-05-27T13:40:06;7.35;;;2.60;;
27804;SDS011;15183;51.350;11.102;2023-05-27T13:42:34;5.30;;;2.63;;
27804;SDS011;15183;51.350;11.102;2023-05-27T13:45:02;10.65;;;3.45;;
27804;SDS011;15183;51.350;11.102;2023-05-27T13:47:29;9.38;;;3.15;;
27804;SDS011;15183;51.350;11.102;2023-05-27T13:49:55;6.38;;;2.95;;
27804;SDS011;15183;51.350;11.102;2023-05-27T13:52:21;9.55;;;3.60;;
27804;SDS011;15183;51.350;11.102;2023-05-27T13:54:48;8.77;;;3.40;;
27804;SDS011;15183;51.350;11.102;2023-05-27T13:57:14;6.38;;;2.47;;
27804;SDS011;15183;51.350;11.102;2023-05-27T13:59:41;9.23;;;3.72;;
27804;SDS011;15183;51.350;11.102;2023-05-27T14:02:08;10.85;;;3.20;;
27804;SDS011;15183;51.350;11.102;2023-05-27T14:04:35;6.50;;;2.67;;
27804;SDS011;15183;51.350;11.102;2023-05-27T14:07:01;7.03;;;3.00;;
27804;SDS011;15183;51.350;11.102;2023-05-27T14:09:27;6.80;;;3.15;;
27804;SDS011;15183;51.350;11.102;2023-05-27T14:11:54;8.00;;;2.95;;
27804;SDS011;15183;51.350;11.102;2023-05-27T14:14:21;5.95;;;2.83;;
27804;SDS011;15183;51.350;11.102;2023-05-27T14:16:47;11.10;;;2.63;;
27804;SDS011;15183;51.350;11.102;2023-05-27T14:19:14;7.00;;;3.00;;
27804;SDS011;15183;51.350;11.102;2023-05-27T14:21:40;9.43;;;2.78;;
27804;SDS011;15183;51.350;11.102;2023-05-27T14:24:07;10.50;;;2.83;;
27804;SDS011;15183;51.350;11.102;2023-05-27T14:26:33;10.05;;;3.22;;
27804;SDS011;15183;51.350;11.102;2023-05-27T14:29:00;9.07;;;3.95;;
27804;SDS011;15183;51.350;11.102;2023-05-27T14:31:26;8.80;;;2.58;;
27804;SDS011;15183;51.350;11.102;2023-05-27T14:33:52;8.43;;;2.20;;
27804;SDS011;15183;51.350;11.102;2023-05-27T14:36:19;6.25;;;2.63;;
27804;SDS011;15183;51.350;11.102;2023-05-27T14:38:45;7.82;;;2.65;;
27804;SDS011;15183;51.350;11.102;2023-05-27T14:41:12;8.30;;;2.83;;